sensor_id;sensor_type;location;lat;lon;timestamp;temperature;humidity
3794;DHT22;1912;51.358;12.282;2023-06-22T00:00:55;21.80;1.00
3794;DHT22;1912;51.358;12.282;2023-06-22T00:03:23;21.70;1.00
3794;DHT22;1912;51.358;12.282;2023-06-22T00:05:50;21.70;1.00
3794;DHT22;1912;51.358;12.282;2023-06-22T00:08:17;21.60;1.00
3794;DHT22;1912;51.358;12.282;2023-06-22T00:10:44;21.60;1.00
3794;DHT22;1912;51.358;12.282;2023-06-22T00:13:11;21.50;1.00
3794;DHT22;1912;51.358;12.282;2023-06-22T00:15:39;21.50;1.00
3794;DHT22;1912;51.358;12.282;2023-06-22T00:18:06;21.60;1.00
3794;DHT22;1912;51.358;12.282;2023-06-22T00:20:32;21.50;1.00
3794;DHT22;1912;51.358;12.282;2023-06-22T00:23:01;21.50;1.00
3794;DHT22;1912;51.358;12.282;2023-06-22T00:25:33;21.60;1.00
3794;DHT22;1912;51.358;12.282;2023-06-22T00:28:03;21.60;1.00
3794;DHT22;1912;51.358;12.282;2023-06-22T00:30:30;21.50;1.00
3794;DHT22;1912;51.358;12.282;2023-06-22T00:32:56;21.50;1.00
3794;DHT22;1912;51.358;12.282;2023-06-22T00:35:22;21.30;1.00
3794;DHT22;1912;51.358;12.282;2023-06-22T00:37:48;21.40;1.00
3794;DHT22;1912;51.358;12.282;2023-06-22T00:40:13;21.30;1.00
3794;DHT22;1912;51.358;12.282;2023-06-22T00:42:40;21.40;1.00
3794;DHT22;1912;51.358;12.282;2023-06-22T00:45:07;21.30;1.00
3794;DHT22;1912;51.358;12.282;2023-06-22T00:47:37;21.30;1.00
3794;DHT22;1912;51.358;12.282;2023-06-22T00:50:06;21.20;1.00
3794;DHT22;1912;51.358;12.282;2023-06-22T00:52:32;21.20;1.00
3794;DHT22;1912;51.358;12.282;2023-06-22T00:55:01;21.20;1.00
3794;DHT22;1912;51.358;12.282;2023-06-22T00:57:28;21.20;1.00
3794;DHT22;1912;51.358;12.282;2023-06-22T00:59:54;21.10;1.00
3794;DHT22;1912;51.358;12.282;2023-06-22T01:02:20;21.10;1.00
3794;DHT22;1912;51.358;12.282;2023-06-22T01:04:46;21.10;1.00
3794;DHT22;1912;51.358;12.282;2023-06-22T01:07:38;21.00;1.00
3794;DHT22;1912;51.358;12.282;2023-06-22T01:12:45;20.70;1.00
3794;DHT22;1912;51.358;12.282;2023-06-22T01:15:23;20.70;1.00
3794;DHT22;1912;51.358;12.282;2023-06-22T04:31:04;20.10;1.00
3794;DHT22;1912;51.358;12.282;2023-06-22T04:33:30;20.20;1.00
3794;DHT22;1912;51.358;12.282;2023-06-22T04:35:57;20.20;1.00
3794;DHT22;1912;51.358;12.282;2023-06-22T04:38:24;20.30;1.00
3794;DHT22;1912;51.358;12.282;2023-06-22T04:40:50;20.40;1.00
3794;DHT22;1912;51.358;12.282;2023-06-22T04:43:16;20.40;1.00
3794;DHT22;1912;51.358;12.282;2023-06-22T04:45:42;20.50;1.00
3794;DHT22;1912;51.358;12.282;2023-06-22T04:48:07;20.60;1.00
3794;DHT22;1912;51.358;12.282;2023-06-22T04:50:41;20.70;1.00
3794;DHT22;1912;51.358;12.282;2023-06-22T04:53:07;20.70;1.00
3794;DHT22;1912;51.358;12.282;2023-06-22T04:55:32;20.70;1.00
3794;DHT22;1912;51.358;12.282;2023-06-22T04:57:58;20.70;1.00
3794;DHT22;1912;51.358;12.282;2023-06-22T05:00:30;20.80;1.00
3794;DHT22;1912;51.358;12.282;2023-06-22T05:02:56;20.90;1.00
3794;DHT22;1912;51.358;12.282;2023-06-22T05:05:23;21.00;1.00
3794;DHT22;1912;51.358;12.282;2023-06-22T05:07:51;21.10;1.00
3794;DHT22;1912;51.358;12.282;2023-06-22T05:10:19;21.10;1.00
3794;DHT22;1912;51.358;12.282;2023-06-22T05:12:46;21.30;1.00
3794;DHT22;1912;51.358;12.282;2023-06-22T05:15:12;21.40;1.00
3794;DHT22;1912;51.358;12.282;2023-06-22T05:17:38;21.50;1.00
3794;DHT22;1912;51.358;12.282;2023-06-22T05:20:10;21.70;1.00
3794;DHT22;1912;51.358;12.282;2023-06-22T05:22:37;21.90;1.00
3794;DHT22;1912;51.358;12.282;2023-06-22T05:25:04;22.10;1.00
3794;DHT22;1912;51.358;12.282;2023-06-22T05:27:34;22.20;1.00
3794;DHT22;1912;51.358;12.282;2023-06-22T05:30:07;22.20;1.00
3794;DHT22;1912;51.358;12.282;2023-06-22T05:32:35;22.30;1.00
3794;DHT22;1912;51.358;12.282;2023-06-22T05:35:02;22.40;1.00
3794;DHT22;1912;51.358;12.282;2023-06-22T05:37:29;22.40;1.00
3794;DHT22;1912;51.358;12.282;2023-06-22T05:39:55;22.40;1.00
3794;DHT22;1912;51.358;12.282;2023-06-22T05:42:21;22.50;1.00
3794;DHT22;1912;51.358;12.282;2023-06-22T05:44:47;22.90;1.00
3794;DHT22;1912;51.358;12.282;2023-06-22T05:47:13;23.50;1.00
3794;DHT22;1912;51.358;12.282;2023-06-22T05:49:38;24.20;1.00
3794;DHT22;1912;51.358;12.282;2023-06-22T05:52:04;24.60;1.00
3794;DHT22;1912;51.358;12.282;2023-06-22T05:54:30;25.00;1.00
3794;DHT22;1912;51.358;12.282;2023-06-22T05:56:56;25.10;1.00
3794;DHT22;1912;51.358;12.282;2023-06-22T05:59:22;25.20;1.00
3794;DHT22;1912;51.358;12.282;2023-06-22T06:01:47;25.30;1.00
3794;DHT22;1912;51.358;12.282;2023-06-22T06:04:17;25.60;1.00
3794;DHT22;1912;51.358;12.282;2023-06-22T06:06:43;26.00;1.00
3794;DHT22;1912;51.358;12.282;2023-06-22T06:09:09;26.20;1.00
3794;DHT22;1912;51.358;12.282;2023-06-22T06:11:36;26.00;1.00
3794;DHT22;1912;51.358;12.282;2023-06-22T06:14:02;25.50;1.00
3794;DHT22;1912;51.358;12.282;2023-06-22T06:16:28;25.40;1.00
3794;DHT22;1912;51.358;12.282;2023-06-22T06:18:54;25.20;1.00
3794;DHT22;1912;51.358;12.282;2023-06-22T06:21:21;25.50;1.00
3794;DHT22;1912;51.358;12.282;2023-06-22T06:23:48;25.60;1.00
3794;DHT22;1912;51.358;12.282;2023-06-22T06:26:13;25.80;1.00
3794;DHT22;1912;51.358;12.282;2023-06-22T06:28:42;25.80;1.00
3794;DHT22;1912;51.358;12.282;2023-06-22T06:31:08;25.70;1.00
3794;DHT22;1912;51.358;12.282;2023-06-22T06:33:34;25.60;1.00
3794;DHT22;1912;51.358;12.282;2023-06-22T06:36:01;25.70;1.00
3794;DHT22;1912;51.358;12.282;2023-06-22T06:38:31;25.50;1.00
3794;DHT22;1912;51.358;12.282;2023-06-22T06:40:58;25.60;1.00
3794;DHT22;1912;51.358;12.282;2023-06-22T06:43:23;25.70;1.00
3794;DHT22;1912;51.358;12.282;2023-06-22T06:45:50;25.80;1.00
3794;DHT22;1912;51.358;12.282;2023-06-22T06:48:15;25.90;1.00
3794;DHT22;1912;51.358;12.282;2023-06-22T06:50:41;26.00;1.00
3794;DHT22;1912;51.358;12.282;2023-06-22T06:53:09;26.10;1.00
3794;DHT22;1912;51.358;12.282;2023-06-22T06:55:35;26.00;1.00
3794;DHT22;1912;51.358;12.282;2023-06-22T06:58:02;26.10;1.00
3794;DHT22;1912;51.358;12.282;2023-06-22T07:00:29;26.10;1.00
3794;DHT22;1912;51.358;12.282;2023-06-22T07:02:55;25.90;1.00
3794;DHT22;1912;51.358;12.282;2023-06-22T07:05:20;26.10;1.00
3794;DHT22;1912;51.358;12.282;2023-06-22T07:07:46;26.30;1.00
3794;DHT22;1912;51.358;12.282;2023-06-22T07:10:12;26.30;1.00
3794;DHT22;1912;51.358;12.282;2023-06-22T07:12:37;26.40;1.00
3794;DHT22;1912;51.358;12.282;2023-06-22T07:15:04;26.40;1.00
3794;DHT22;1912;51.358;12.282;2023-06-22T07:17:31;26.30;1.00
3794;DHT22;1912;51.358;12.282;2023-06-22T07:19:56;26.40;1.00
3794;DHT22;1912;51.358;12.282;2023-06-22T07:22:22;26.70;1.00
3794;DHT22;1912;51.358;12.282;2023-06-22T07:24:48;27.00;1.00
3794;DHT22;1912;51.358;12.282;2023-06-22T07:27:14;27.30;1.00
3794;DHT22;1912;51.358;12.282;2023-06-22T07:29:43;27.70;1.00
3794;DHT22;1912;51.358;12.282;2023-06-22T07:32:09;27.70;1.00
3794;DHT22;1912;51.358;12.282;2023-06-22T07:34:35;27.80;1.00
3794;DHT22;1912;51.358;12.282;2023-06-22T07:37:01;27.70;1.00
3794;DHT22;1912;51.358;12.282;2023-06-22T07:39:26;27.80;1.00
3794;DHT22;1912;51.358;12.282;2023-06-22T07:41:53;28.00;1.00
3794;DHT22;1912;51.358;12.282;2023-06-22T07:44:19;28.40;1.00
3794;DHT22;1912;51.358;12.282;2023-06-22T07:46:44;28.60;1.00
3794;DHT22;1912;51.358;12.282;2023-06-22T07:49:10;28.90;1.00
3794;DHT22;1912;51.358;12.282;2023-06-22T07:51:36;28.80;1.00
3794;DHT22;1912;51.358;12.282;2023-06-22T07:54:02;29.00;1.00
3794;DHT22;1912;51.358;12.282;2023-06-22T07:56:27;29.10;1.00
3794;DHT22;1912;51.358;12.282;2023-06-22T07:58:53;29.20;1.00
3794;DHT22;1912;51.358;12.282;2023-06-22T08:01:19;29.40;1.00
3794;DHT22;1912;51.358;12.282;2023-06-22T08:03:48;29.60;1.00
3794;DHT22;1912;51.358;12.282;2023-06-22T08:06:13;29.70;1.00
3794;DHT22;1912;51.358;12.282;2023-06-22T08:08:39;30.10;1.00
3794;DHT22;1912;51.358;12.282;2023-06-22T08:11:05;30.40;1.00
3794;DHT22;1912;51.358;12.282;2023-06-22T08:13:31;30.50;1.00
3794;DHT22;1912;51.358;12.282;2023-06-22T08:15:57;30.80;1.00
3794;DHT22;1912;51.358;12.282;2023-06-22T08:18:22;31.00;1.00
3794;DHT22;1912;51.358;12.282;2023-06-22T08:20:48;30.90;1.00
3794;DHT22;1912;51.358;12.282;2023-06-22T08:23:14;31.10;1.00
3794;DHT22;1912;51.358;12.282;2023-06-22T08:25:40;31.00;1.00
3794;DHT22;1912;51.358;12.282;2023-06-22T08:28:05;31.10;1.00
3794;DHT22;1912;51.358;12.282;2023-06-22T08:30:32;31.40;1.00
3794;DHT22;1912;51.358;12.282;2023-06-22T08:32:58;31.40;1.00
3794;DHT22;1912;51.358;12.282;2023-06-22T08:35:23;31.50;1.00
3794;DHT22;1912;51.358;12.282;2023-06-22T08:37:49;31.60;1.00
3794;DHT22;1912;51.358;12.282;2023-06-22T08:40:20;31.60;1.00
3794;DHT22;1912;51.358;12.282;2023-06-22T08:42:46;31.50;1.00
3794;DHT22;1912;51.358;12.282;2023-06-22T08:45:12;31.30;1.00
3794;DHT22;1912;51.358;12.282;2023-06-22T08:47:40;31.40;1.00
3794;DHT22;1912;51.358;12.282;2023-06-22T08:50:10;31.10;1.00
3794;DHT22;1912;51.358;12.282;2023-06-22T08:52:38;31.00;1.00
3794;DHT22;1912;51.358;12.282;2023-06-22T08:55:06;31.10;1.00
3794;DHT22;1912;51.358;12.282;2023-06-22T08:57:33;31.60;1.00
3794;DHT22;1912;51.358;12.282;2023-06-22T08:59:59;32.00;1.00
3794;DHT22;1912;51.358;12.282;2023-06-22T09:02:28;32.10;1.00
3794;DHT22;1912;51.358;12.282;2023-06-22T09:04:57;32.20;1.00
3794;DHT22;1912;51.358;12.282;2023-06-22T09:07:23;32.00;1.00
3794;DHT22;1912;51.358;12.282;2023-06-22T09:09:50;31.70;1.00
3794;DHT22;1912;51.358;12.282;2023-06-22T09:12:16;32.00;1.00
3794;DHT22;1912;51.358;12.282;2023-06-22T09:14:45;32.50;1.00
3794;DHT22;1912;51.358;12.282;2023-06-22T09:17:12;32.90;1.00
3794;DHT22;1912;51.358;12.282;2023-06-22T09:19:38;32.90;1.00
3794;DHT22;1912;51.358;12.282;2023-06-22T09:22:04;32.70;1.00
3794;DHT22;1912;51.358;12.282;2023-06-22T09:24:32;32.80;1.00
3794;DHT22;1912;51.358;12.282;2023-06-22T09:26:57;32.90;1.00
3794;DHT22;1912;51.358;12.282;2023-06-22T09:29:24;33.10;1.00
3794;DHT22;1912;51.358;12.282;2023-06-22T09:31:50;33.60;1.00
3794;DHT22;1912;51.358;12.282;2023-06-22T09:34:16;33.50;1.00
3794;DHT22;1912;51.358;12.282;2023-06-22T09:36:48;33.50;1.00
3794;DHT22;1912;51.358;12.282;2023-06-22T09:39:13;33.20;1.00
3794;DHT22;1912;51.358;12.282;2023-06-22T09:41:39;33.00;1.00
3794;DHT22;1912;51.358;12.282;2023-06-22T09:44:05;32.80;1.00
3794;DHT22;1912;51.358;12.282;2023-06-22T09:46:30;33.10;1.00
3794;DHT22;1912;51.358;12.282;2023-06-22T09:48:56;33.30;1.00
3794;DHT22;1912;51.358;12.282;2023-06-22T09:51:22;33.30;1.00
3794;DHT22;1912;51.358;12.282;2023-06-22T09:53:49;33.00;1.00
3794;DHT22;1912;51.358;12.282;2023-06-22T09:56:15;33.20;1.00
3794;DHT22;1912;51.358;12.282;2023-06-22T09:58:44;33.30;1.00
3794;DHT22;1912;51.358;12.282;2023-06-22T10:01:11;33.10;1.00
3794;DHT22;1912;51.358;12.282;2023-06-22T10:03:39;33.20;1.00
3794;DHT22;1912;51.358;12.282;2023-06-22T10:06:06;33.30;1.00
3794;DHT22;1912;51.358;12.282;2023-06-22T10:08:32;33.60;1.00
3794;DHT22;1912;51.358;12.282;2023-06-22T10:10:58;33.70;1.00
3794;DHT22;1912;51.358;12.282;2023-06-22T10:13:23;33.90;1.00
3794;DHT22;1912;51.358;12.282;2023-06-22T10:15:49;34.40;1.00
3794;DHT22;1912;51.358;12.282;2023-06-22T10:18:17;34.40;1.00
3794;DHT22;1912;51.358;12.282;2023-06-22T10:20:43;34.80;1.00
3794;DHT22;1912;51.358;12.282;2023-06-22T10:23:10;34.90;1.00
3794;DHT22;1912;51.358;12.282;2023-06-22T10:25:35;34.90;1.00
3794;DHT22;1912;51.358;12.282;2023-06-22T10:28:01;35.20;1.00
3794;DHT22;1912;51.358;12.282;2023-06-22T10:30:27;35.20;1.00
3794;DHT22;1912;51.358;12.282;2023-06-22T10:32:54;35.50;1.00
3794;DHT22;1912;51.358;12.282;2023-06-22T10:35:19;35.40;1.00
3794;DHT22;1912;51.358;12.282;2023-06-22T10:37:46;35.30;1.00
3794;DHT22;1912;51.358;12.282;2023-06-22T10:40:16;35.60;1.00
3794;DHT22;1912;51.358;12.282;2023-06-22T10:42:42;35.80;1.00
3794;DHT22;1912;51.358;12.282;2023-06-22T10:45:08;36.30;1.00
3794;DHT22;1912;51.358;12.282;2023-06-22T10:47:35;36.60;1.00
3794;DHT22;1912;51.358;12.282;2023-06-22T10:50:01;36.30;1.00
3794;DHT22;1912;51.358;12.282;2023-06-22T10:52:27;36.00;1.00
3794;DHT22;1912;51.358;12.282;2023-06-22T10:54:53;35.80;1.00
3794;DHT22;1912;51.358;12.282;2023-06-22T10:57:18;36.20;1.00
3794;DHT22;1912;51.358;12.282;2023-06-22T10:59:44;36.60;1.00
3794;DHT22;1912;51.358;12.282;2023-06-22T11:02:10;36.80;1.00
3794;DHT22;1912;51.358;12.282;2023-06-22T11:04:35;36.60;1.00
3794;DHT22;1912;51.358;12.282;2023-06-22T11:07:02;37.30;1.00
3794;DHT22;1912;51.358;12.282;2023-06-22T11:09:27;37.00;1.00
3794;DHT22;1912;51.358;12.282;2023-06-22T11:11:53;36.80;1.00
3794;DHT22;1912;51.358;12.282;2023-06-22T11:14:19;36.50;1.00
3794;DHT22;1912;51.358;12.282;2023-06-22T11:16:46;36.20;1.00
3794;DHT22;1912;51.358;12.282;2023-06-22T11:19:12;36.20;1.00
3794;DHT22;1912;51.358;12.282;2023-06-22T11:21:38;36.60;1.00
3794;DHT22;1912;51.358;12.282;2023-06-22T11:24:03;36.80;1.00
3794;DHT22;1912;51.358;12.282;2023-06-22T11:26:29;36.90;1.00
3794;DHT22;1912;51.358;12.282;2023-06-22T11:28:57;37.20;1.00
3794;DHT22;1912;51.358;12.282;2023-06-22T11:31:23;37.20;1.00
3794;DHT22;1912;51.358;12.282;2023-06-22T11:33:49;37.20;1.00
3794;DHT22;1912;51.358;12.282;2023-06-22T11:36:15;36.60;1.00
3794;DHT22;1912;51.358;12.282;2023-06-22T11:38:41;36.50;1.00
3794;DHT22;1912;51.358;12.282;2023-06-22T11:41:08;37.00;1.00
3794;DHT22;1912;51.358;12.282;2023-06-22T11:43:34;36.70;1.00
3794;DHT22;1912;51.358;12.282;2023-06-22T11:46:02;36.70;1.00
3794;DHT22;1912;51.358;12.282;2023-06-22T11:48:28;36.80;1.00
3794;DHT22;1912;51.358;12.282;2023-06-22T11:50:54;36.70;1.00
3794;DHT22;1912;51.358;12.282;2023-06-22T11:53:21;37.10;1.00
3794;DHT22;1912;51.358;12.282;2023-06-22T11:55:49;37.30;1.00
3794;DHT22;1912;51.358;12.282;2023-06-22T11:58:14;37.40;1.00
3794;DHT22;1912;51.358;12.282;2023-06-22T12:00:40;37.30;1.00
3794;DHT22;1912;51.358;12.282;2023-06-22T12:03:07;37.50;1.00
3794;DHT22;1912;51.358;12.282;2023-06-22T12:05:33;37.40;1.00
3794;DHT22;1912;51.358;12.282;2023-06-22T12:07:58;37.50;1.00
3794;DHT22;1912;51.358;12.282;2023-06-22T12:10:26;37.60;1.00
3794;DHT22;1912;51.358;12.282;2023-06-22T12:12:54;37.90;1.00
3794;DHT22;1912;51.358;12.282;2023-06-22T12:15:19;38.00;1.00
3794;DHT22;1912;51.358;12.282;2023-06-22T12:17:45;37.80;1.00
3794;DHT22;1912;51.358;12.282;2023-06-22T12:20:11;37.60;1.00
3794;DHT22;1912;51.358;12.282;2023-06-22T12:22:36;37.60;1.00
3794;DHT22;1912;51.358;12.282;2023-06-22T12:25:05;37.70;1.00
3794;DHT22;1912;51.358;12.282;2023-06-22T12:27:31;38.10;1.00
3794;DHT22;1912;51.358;12.282;2023-06-22T12:29:57;38.30;1.00
3794;DHT22;1912;51.358;12.282;2023-06-22T12:32:22;38.20;1.00
3794;DHT22;1912;51.358;12.282;2023-06-22T12:34:48;38.50;1.00
3794;DHT22;1912;51.358;12.282;2023-06-22T12:37:14;38.00;1.00
3794;DHT22;1912;51.358;12.282;2023-06-22T12:39:40;37.90;1.00
3794;DHT22;1912;51.358;12.282;2023-06-22T12:42:07;38.00;1.00
3794;DHT22;1912;51.358;12.282;2023-06-22T12:44:37;37.80;1.00
3794;DHT22;1912;51.358;12.282;2023-06-22T12:47:04;37.30;1.00
3794;DHT22;1912;51.358;12.282;2023-06-22T12:49:30;36.80;1.00
3794;DHT22;1912;51.358;12.282;2023-06-22T12:51:55;36.40;1.00
3794;DHT22;1912;51.358;12.282;2023-06-22T12:54:21;36.50;1.00
3794;DHT22;1912;51.358;12.282;2023-06-22T12:56:47;37.00;1.00
3794;DHT22;1912;51.358;12.282;2023-06-22T12:59:12;37.00;1.00
3794;DHT22;1912;51.358;12.282;2023-06-22T13:01:38;37.10;1.00
3794;DHT22;1912;51.358;12.282;2023-06-22T13:04:04;37.40;1.00
3794;DHT22;1912;51.358;12.282;2023-06-22T13:06:30;37.40;1.00
3794;DHT22;1912;51.358;12.282;2023-06-22T13:08:56;37.10;1.00
3794;DHT22;1912;51.358;12.282;2023-06-22T13:11:21;37.00;1.00
3794;DHT22;1912;51.358;12.282;2023-06-22T13:13:47;36.70;1.00
3794;DHT22;1912;51.358;12.282;2023-06-22T13:16:13;36.50;1.00
3794;DHT22;1912;51.358;12.282;2023-06-22T13:18:38;36.30;1.00
3794;DHT22;1912;51.358;12.282;2023-06-22T13:21:04;36.00;1.00
3794;DHT22;1912;51.358;12.282;2023-06-22T13:23:30;36.10;1.00
3794;DHT22;1912;51.358;12.282;2023-06-22T13:25:57;36.30;1.00
3794;DHT22;1912;51.358;12.282;2023-06-22T13:28:23;36.20;1.00
3794;DHT22;1912;51.358;12.282;2023-06-22T13:30:49;36.10;1.00
3794;DHT22;1912;51.358;12.282;2023-06-22T13:33:14;36.20;1.00
3794;DHT22;1912;51.358;12.282;2023-06-22T13:35:40;36.10;1.00
3794;DHT22;1912;51.358;12.282;2023-06-22T13:38:10;36.30;1.00
3794;DHT22;1912;51.358;12.282;2023-06-22T13:40:37;36.70;1.00
3794;DHT22;1912;51.358;12.282;2023-06-22T13:43:06;37.00;1.00
3794;DHT22;1912;51.358;12.282;2023-06-22T13:45:32;37.00;1.00
3794;DHT22;1912;51.358;12.282;2023-06-22T13:47:58;37.10;1.00
3794;DHT22;1912;51.358;12.282;2023-06-22T13:50:24;37.20;1.00
3794;DHT22;1912;51.358;12.282;2023-06-22T13:52:49;37.50;1.00
3794;DHT22;1912;51.358;12.282;2023-06-22T13:55:15;37.50;1.00
3794;DHT22;1912;51.358;12.282;2023-06-22T13:57:42;37.50;1.00
3794;DHT22;1912;51.358;12.282;2023-06-22T14:00:09;36.50;1.00
3794;DHT22;1912;51.358;12.282;2023-06-22T14:02:35;36.50;1.00
3794;DHT22;1912;51.358;12.282;2023-06-22T14:05:01;35.90;1.00
3794;DHT22;1912;51.358;12.282;2023-06-22T14:07:27;35.70;1.00
3794;DHT22;1912;51.358;12.282;2023-06-22T14:09:53;36.00;1.00
3794;DHT22;1912;51.358;12.282;2023-06-22T14:12:19;36.60;1.00
3794;DHT22;1912;51.358;12.282;2023-06-22T14:14:44;36.90;1.00
3794;DHT22;1912;51.358;12.282;2023-06-22T14:17:10;36.80;1.00
3794;DHT22;1912;51.358;12.282;2023-06-22T14:19:36;36.50;1.00
3794;DHT22;1912;51.358;12.282;2023-06-22T14:22:02;36.70;1.00
3794;DHT22;1912;51.358;12.282;2023-06-22T14:24:28;36.60;1.00
3794;DHT22;1912;51.358;12.282;2023-06-22T14:26:54;36.80;1.00
3794;DHT22;1912;51.358;12.282;2023-06-22T14:29:21;37.10;1.00
3794;DHT22;1912;51.358;12.282;2023-06-22T14:31:48;36.90;1.00
3794;DHT22;1912;51.358;12.282;2023-06-22T14:34:14;36.60;1.00
3794;DHT22;1912;51.358;12.282;2023-06-22T14:36:41;36.50;1.00
3794;DHT22;1912;51.358;12.282;2023-06-22T14:39:08;36.30;1.00
3794;DHT22;1912;51.358;12.282;2023-06-22T14:41:34;36.10;1.00
3794;DHT22;1912;51.358;12.282;2023-06-22T14:43:59;35.80;1.00
3794;DHT22;1912;51.358;12.282;2023-06-22T14:46:25;35.60;1.00
3794;DHT22;1912;51.358;12.282;2023-06-22T14:48:52;35.80;1.00
3794;DHT22;1912;51.358;12.282;2023-06-22T14:51:18;36.00;1.00
3794;DHT22;1912;51.358;12.282;2023-06-22T14:53:45;36.10;1.00
3794;DHT22;1912;51.358;12.282;2023-06-22T14:56:11;36.20;1.00
3794;DHT22;1912;51.358;12.282;2023-06-22T14:58:39;36.10;1.00
3794;DHT22;1912;51.358;12.282;2023-06-22T15:01:05;35.70;1.00
3794;DHT22;1912;51.358;12.282;2023-06-22T15:03:34;35.30;1.00
3794;DHT22;1912;51.358;12.282;2023-06-22T15:06:01;35.20;1.00
3794;DHT22;1912;51.358;12.282;2023-06-22T15:08:27;35.30;1.00
3794;DHT22;1912;51.358;12.282;2023-06-22T15:10:54;35.30;1.00
3794;DHT22;1912;51.358;12.282;2023-06-22T15:13:20;35.30;1.00
3794;DHT22;1912;51.358;12.282;2023-06-22T15:15:47;35.10;1.00
3794;DHT22;1912;51.358;12.282;2023-06-22T15:18:14;34.90;1.00
3794;DHT22;1912;51.358;12.282;2023-06-22T15:20:40;34.80;1.00
3794;DHT22;1912;51.358;12.282;2023-06-22T15:23:07;34.40;1.00
3794;DHT22;1912;51.358;12.282;2023-06-22T15:25:34;34.30;1.00
3794;DHT22;1912;51.358;12.282;2023-06-22T15:27:59;34.20;1.00
3794;DHT22;1912;51.358;12.282;2023-06-22T15:30:25;34.10;1.00
3794;DHT22;1912;51.358;12.282;2023-06-22T15:32:50;33.90;1.00
3794;DHT22;1912;51.358;12.282;2023-06-22T15:35:16;33.90;1.00
3794;DHT22;1912;51.358;12.282;2023-06-22T15:37:44;33.70;1.00
3794;DHT22;1912;51.358;12.282;2023-06-22T15:40:10;33.60;1.00
3794;DHT22;1912;51.358;12.282;2023-06-22T15:42:37;33.50;1.00
3794;DHT22;1912;51.358;12.282;2023-06-22T15:45:04;33.70;1.00
3794;DHT22;1912;51.358;12.282;2023-06-22T15:47:30;33.70;1.00
3794;DHT22;1912;51.358;12.282;2023-06-22T15:49:55;33.60;1.00
3794;DHT22;1912;51.358;12.282;2023-06-22T15:52:21;33.50;1.00
3794;DHT22;1912;51.358;12.282;2023-06-22T15:54:48;33.80;1.00
3794;DHT22;1912;51.358;12.282;2023-06-22T15:57:16;33.90;1.00
3794;DHT22;1912;51.358;12.282;2023-06-22T15:59:42;33.80;1.00
3794;DHT22;1912;51.358;12.282;2023-06-22T16:02:09;33.50;1.00
3794;DHT22;1912;51.358;12.282;2023-06-22T16:04:35;33.30;1.00
3794;DHT22;1912;51.358;12.282;2023-06-22T16:07:02;33.20;1.00
3794;DHT22;1912;51.358;12.282;2023-06-22T16:09:28;33.30;1.00
3794;DHT22;1912;51.358;12.282;2023-06-22T16:11:55;33.40;1.00
3794;DHT22;1912;51.358;12.282;2023-06-22T16:14:21;33.30;1.00
3794;DHT22;1912;51.358;12.282;2023-06-22T16:16:47;33.30;1.00
3794;DHT22;1912;51.358;12.282;2023-06-22T16:19:13;33.20;1.00
3794;DHT22;1912;51.358;12.282;2023-06-22T16:21:40;33.00;1.00
3794;DHT22;1912;51.358;12.282;2023-06-22T16:24:09;32.90;1.00
3794;DHT22;1912;51.358;12.282;2023-06-22T16:26:39;32.90;1.00
3794;DHT22;1912;51.358;12.282;2023-06-22T16:29:06;32.90;1.00
3794;DHT22;1912;51.358;12.282;2023-06-22T16:31:32;32.70;1.00
3794;DHT22;1912;51.358;12.282;2023-06-22T16:33:58;32.60;1.00
3794;DHT22;1912;51.358;12.282;2023-06-22T16:36:23;32.50;1.00
3794;DHT22;1912;51.358;12.282;2023-06-22T16:38:49;32.50;1.00
3794;DHT22;1912;51.358;12.282;2023-06-22T16:41:17;32.50;1.00
3794;DHT22;1912;51.358;12.282;2023-06-22T16:43:43;32.40;1.00
3794;DHT22;1912;51.358;12.282;2023-06-22T16:46:09;32.30;1.00
3794;DHT22;1912;51.358;12.282;2023-06-22T16:48:38;32.20;1.00
3794;DHT22;1912;51.358;12.282;2023-06-22T16:51:04;32.00;1.00
3794;DHT22;1912;51.358;12.282;2023-06-22T16:53:30;32.10;1.00
3794;DHT22;1912;51.358;12.282;2023-06-22T16:55:59;32.00;1.00
3794;DHT22;1912;51.358;12.282;2023-06-22T16:58:26;32.00;1.00
3794;DHT22;1912;51.358;12.282;2023-06-22T17:00:52;31.90;1.00
3794;DHT22;1912;51.358;12.282;2023-06-22T17:03:24;31.80;1.00
3794;DHT22;1912;51.358;12.282;2023-06-22T17:05:55;31.70;1.00
3794;DHT22;1912;51.358;12.282;2023-06-22T17:08:21;31.70;1.00
3794;DHT22;1912;51.358;12.282;2023-06-22T17:10:49;31.60;1.00
3794;DHT22;1912;51.358;12.282;2023-06-22T17:13:15;31.60;1.00
3794;DHT22;1912;51.358;12.282;2023-06-22T17:15:42;31.60;1.00
3794;DHT22;1912;51.358;12.282;2023-06-22T17:18:09;31.50;1.00
3794;DHT22;1912;51.358;12.282;2023-06-22T17:20:35;31.40;1.00
3794;DHT22;1912;51.358;12.282;2023-06-22T17:23:00;31.50;1.00
3794;DHT22;1912;51.358;12.282;2023-06-22T17:25:28;31.50;1.00
3794;DHT22;1912;51.358;12.282;2023-06-22T17:28:01;31.40;1.00
3794;DHT22;1912;51.358;12.282;2023-06-22T17:30:28;31.50;1.00
3794;DHT22;1912;51.358;12.282;2023-06-22T17:32:54;31.50;1.00
3794;DHT22;1912;51.358;12.282;2023-06-22T17:35:20;31.30;1.00
3794;DHT22;1912;51.358;12.282;2023-06-22T17:37:54;31.30;1.00
3794;DHT22;1912;51.358;12.282;2023-06-22T17:40:23;31.30;1.00
3794;DHT22;1912;51.358;12.282;2023-06-22T17:42:51;31.20;1.00
3794;DHT22;1912;51.358;12.282;2023-06-22T17:45:28;31.20;1.00
3794;DHT22;1912;51.358;12.282;2023-06-22T17:47:54;31.00;1.00
3794;DHT22;1912;51.358;12.282;2023-06-22T17:50:23;31.00;1.00
3794;DHT22;1912;51.358;12.282;2023-06-22T17:52:54;30.90;1.00
3794;DHT22;1912;51.358;12.282;2023-06-22T17:55:21;30.90;1.00
3794;DHT22;1912;51.358;12.282;2023-06-22T17:57:54;30.80;1.00
3794;DHT22;1912;51.358;12.282;2023-06-22T18:00:21;30.80;1.00
3794;DHT22;1912;51.358;12.282;2023-06-22T18:02:49;30.70;1.00
3794;DHT22;1912;51.358;12.282;2023-06-22T18:05:15;30.70;1.00
3794;DHT22;1912;51.358;12.282;2023-06-22T18:07:40;30.60;1.00
3794;DHT22;1912;51.358;12.282;2023-06-22T18:10:08;30.60;1.00
3794;DHT22;1912;51.358;12.282;2023-06-22T18:12:35;30.60;1.00
3794;DHT22;1912;51.358;12.282;2023-06-22T18:15:03;30.50;1.00
3794;DHT22;1912;51.358;12.282;2023-06-22T18:17:29;30.50;1.00
3794;DHT22;1912;51.358;12.282;2023-06-22T18:19:56;30.50;1.00
3794;DHT22;1912;51.358;12.282;2023-06-22T18:22:22;30.40;1.00
3794;DHT22;1912;51.358;12.282;2023-06-22T18:24:52;30.40;1.00
3794;DHT22;1912;51.358;12.282;2023-06-22T18:27:18;30.30;1.00
3794;DHT22;1912;51.358;12.282;2023-06-22T18:29:43;30.30;1.00
3794;DHT22;1912;51.358;12.282;2023-06-22T18:32:10;30.20;1.00
3794;DHT22;1912;51.358;12.282;2023-06-22T18:34:41;30.10;1.00
3794;DHT22;1912;51.358;12.282;2023-06-22T18:37:13;30.10;1.00
3794;DHT22;1912;51.358;12.282;2023-06-22T18:39:42;30.10;1.00
3794;DHT22;1912;51.358;12.282;2023-06-22T18:42:10;30.10;1.00
3794;DHT22;1912;51.358;12.282;2023-06-22T18:44:40;29.90;1.00
3794;DHT22;1912;51.358;12.282;2023-06-22T18:47:07;29.90;1.00
3794;DHT22;1912;51.358;12.282;2023-06-22T18:49:46;29.80;1.00
3794;DHT22;1912;51.358;12.282;2023-06-22T18:52:25;29.80;1.00
3794;DHT22;1912;51.358;12.282;2023-06-22T18:54:52;29.80;1.00
3794;DHT22;1912;51.358;12.282;2023-06-22T18:57:33;29.80;1.00
3794;DHT22;1912;51.358;12.282;2023-06-22T19:00:09;29.70;1.00
3794;DHT22;1912;51.358;12.282;2023-06-22T19:02:44;29.70;1.00
3794;DHT22;1912;51.358;12.282;2023-06-22T19:15:38;29.50;1.00
3794;DHT22;1912;51.358;12.282;2023-06-22T19:18:19;29.40;1.00
3794;DHT22;1912;51.358;12.282;2023-06-22T19:21:02;29.40;1.00
3794;DHT22;1912;51.358;12.282;2023-06-22T19:23:32;29.20;1.00
3794;DHT22;1912;51.358;12.282;2023-06-22T19:26:01;29.10;1.00